sensor_id;sensor_type;location;lat;lon;timestamp;temperature;humidity
4187;DHT22;2107;52.306;10.484;2023-04-20T00:02:22;4.30;99.90
4187;DHT22;2107;52.306;10.484;2023-04-20T00:04:49;4.30;99.90
4187;DHT22;2107;52.306;10.484;2023-04-20T00:07:16;4.30;99.90
4187;DHT22;2107;52.306;10.484;2023-04-20T00:09:44;4.30;99.90
4187;DHT22;2107;52.306;10.484;2023-04-20T00:12:10;4.30;99.90
4187;DHT22;2107;52.306;10.484;2023-04-20T00:14:37;4.30;99.90
4187;DHT22;2107;52.306;10.484;2023-04-20T00:17:04;4.30;99.90
4187;DHT22;2107;52.306;10.484;2023-04-20T00:19:32;4.30;99.90
4187;DHT22;2107;52.306;10.484;2023-04-20T00:21:59;4.30;99.90
4187;DHT22;2107;52.306;10.484;2023-04-20T00:24:26;4.30;99.90
4187;DHT22;2107;52.306;10.484;2023-04-20T00:26:53;4.40;99.90
4187;DHT22;2107;52.306;10.484;2023-04-20T00:29:21;4.30;99.90
4187;DHT22;2107;52.306;10.484;2023-04-20T00:31:48;4.40;99.90
4187;DHT22;2107;52.306;10.484;2023-04-20T00:34:15;4.40;99.90
4187;DHT22;2107;52.306;10.484;2023-04-20T00:36:43;4.40;99.90
4187;DHT22;2107;52.306;10.484;2023-04-20T00:39:10;4.40;99.90
4187;DHT22;2107;52.306;10.484;2023-04-20T00:41:36;4.40;99.90
4187;DHT22;2107;52.306;10.484;2023-04-20T00:44:05;4.40;99.90
4187;DHT22;2107;52.306;10.484;2023-04-20T00:46:32;4.40;99.90
4187;DHT22;2107;52.306;10.484;2023-04-20T00:48:59;4.40;99.90
4187;DHT22;2107;52.306;10.484;2023-04-20T00:51:27;4.40;99.90
4187;DHT22;2107;52.306;10.484;2023-04-20T00:53:55;4.40;99.90
4187;DHT22;2107;52.306;10.484;2023-04-20T00:56:23;4.50;99.90
4187;DHT22;2107;52.306;10.484;2023-04-20T00:58:49;4.50;99.90
4187;DHT22;2107;52.306;10.484;2023-04-20T01:01:16;4.50;99.90
4187;DHT22;2107;52.306;10.484;2023-04-20T01:03:44;4.60;99.90
4187;DHT22;2107;52.306;10.484;2023-04-20T01:06:13;4.50;99.90
4187;DHT22;2107;52.306;10.484;2023-04-20T01:08:47;4.60;99.90
4187;DHT22;2107;52.306;10.484;2023-04-20T01:11:16;4.60;99.90
4187;DHT22;2107;52.306;10.484;2023-04-20T01:13:43;4.60;99.90
4187;DHT22;2107;52.306;10.484;2023-04-20T01:16:11;4.60;99.90
4187;DHT22;2107;52.306;10.484;2023-04-20T01:18:41;4.60;99.90
4187;DHT22;2107;52.306;10.484;2023-04-20T01:21:10;4.60;99.90
4187;DHT22;2107;52.306;10.484;2023-04-20T01:23:38;4.60;99.90
4187;DHT22;2107;52.306;10.484;2023-04-20T01:26:06;4.70;99.90
4187;DHT22;2107;52.306;10.484;2023-04-20T01:28:33;4.70;99.90
4187;DHT22;2107;52.306;10.484;2023-04-20T01:31:00;4.70;99.90
4187;DHT22;2107;52.306;10.484;2023-04-20T01:33:27;4.60;99.90
4187;DHT22;2107;52.306;10.484;2023-04-20T01:35:54;4.70;99.90
4187;DHT22;2107;52.306;10.484;2023-04-20T01:38:22;4.80;99.90
4187;DHT22;2107;52.306;10.484;2023-04-20T01:40:51;4.60;99.90
4187;DHT22;2107;52.306;10.484;2023-04-20T01:43:19;4.70;99.90
4187;DHT22;2107;52.306;10.484;2023-04-20T01:45:46;4.70;99.90
4187;DHT22;2107;52.306;10.484;2023-04-20T01:48:13;4.70;99.90
4187;DHT22;2107;52.306;10.484;2023-04-20T01:50:40;4.80;99.90
4187;DHT22;2107;52.306;10.484;2023-04-20T01:53:07;4.80;99.90
4187;DHT22;2107;52.306;10.484;2023-04-20T01:55:34;5.00;99.90
4187;DHT22;2107;52.306;10.484;2023-04-20T01:58:02;4.80;99.90
4187;DHT22;2107;52.306;10.484;2023-04-20T02:00:29;4.80;99.90
4187;DHT22;2107;52.306;10.484;2023-04-20T02:02:56;4.80;99.90
4187;DHT22;2107;52.306;10.484;2023-04-20T02:05:23;4.80;99.90
4187;DHT22;2107;52.306;10.484;2023-04-20T02:07:49;4.90;99.90
4187;DHT22;2107;52.306;10.484;2023-04-20T02:10:16;4.90;99.90
4187;DHT22;2107;52.306;10.484;2023-04-20T02:12:43;4.90;99.90
4187;DHT22;2107;52.306;10.484;2023-04-20T02:15:11;5.00;99.90
4187;DHT22;2107;52.306;10.484;2023-04-20T02:17:38;4.90;99.90
4187;DHT22;2107;52.306;10.484;2023-04-20T02:20:07;5.00;99.90
4187;DHT22;2107;52.306;10.484;2023-04-20T02:22:35;5.00;99.90
4187;DHT22;2107;52.306;10.484;2023-04-20T02:25:02;5.00;99.90
4187;DHT22;2107;52.306;10.484;2023-04-20T02:27:30;5.00;99.90
4187;DHT22;2107;52.306;10.484;2023-04-20T02:29:57;5.00;99.90
4187;DHT22;2107;52.306;10.484;2023-04-20T02:32:26;5.00;99.90
4187;DHT22;2107;52.306;10.484;2023-04-20T02:34:53;5.00;99.90
4187;DHT22;2107;52.306;10.484;2023-04-20T02:37:20;5.00;99.90
4187;DHT22;2107;52.306;10.484;2023-04-20T02:39:46;5.00;99.90
4187;DHT22;2107;52.306;10.484;2023-04-20T02:42:13;5.00;99.90
4187;DHT22;2107;52.306;10.484;2023-04-20T02:44:40;5.00;99.90
4187;DHT22;2107;52.306;10.484;2023-04-20T02:47:07;5.00;99.90
4187;DHT22;2107;52.306;10.484;2023-04-20T02:49:35;5.00;99.90
4187;DHT22;2107;52.306;10.484;2023-04-20T02:52:03;5.00;99.90
4187;DHT22;2107;52.306;10.484;2023-04-20T02:54:30;5.00;99.90
4187;DHT22;2107;52.306;10.484;2023-04-20T02:56:57;5.10;99.90
4187;DHT22;2107;52.306;10.484;2023-04-20T02:59:24;5.00;99.90
4187;DHT22;2107;52.306;10.484;2023-04-20T03:01:51;5.10;99.90
4187;DHT22;2107;52.306;10.484;2023-04-20T03:04:18;5.10;99.90
4187;DHT22;2107;52.306;10.484;2023-04-20T03:06:48;5.10;99.90
4187;DHT22;2107;52.306;10.484;2023-04-20T03:09:15;5.10;99.90
4187;DHT22;2107;52.306;10.484;2023-04-20T03:11:43;5.10;99.90
4187;DHT22;2107;52.306;10.484;2023-04-20T03:14:10;5.10;99.90
4187;DHT22;2107;52.306;10.484;2023-04-20T03:16:37;5.20;99.90
4187;DHT22;2107;52.306;10.484;2023-04-20T03:19:04;5.20;99.90
4187;DHT22;2107;52.306;10.484;2023-04-20T03:21:31;5.20;99.90
4187;DHT22;2107;52.306;10.484;2023-04-20T03:23:59;5.20;99.90
4187;DHT22;2107;52.306;10.484;2023-04-20T03:26:26;5.20;99.90
4187;DHT22;2107;52.306;10.484;2023-04-20T03:28:52;5.20;99.90
4187;DHT22;2107;52.306;10.484;2023-04-20T03:31:19;5.20;99.90
4187;DHT22;2107;52.306;10.484;2023-04-20T03:33:48;5.20;99.90
4187;DHT22;2107;52.306;10.484;2023-04-20T03:36:14;5.30;99.90
4187;DHT22;2107;52.306;10.484;2023-04-20T03:38:41;5.20;99.90
4187;DHT22;2107;52.306;10.484;2023-04-20T03:41:10;5.20;99.90
4187;DHT22;2107;52.306;10.484;2023-04-20T03:43:36;5.20;99.90
4187;DHT22;2107;52.306;10.484;2023-04-20T03:46:03;5.20;99.90
4187;DHT22;2107;52.306;10.484;2023-04-20T03:48:31;5.20;99.90
4187;DHT22;2107;52.306;10.484;2023-04-20T03:50:58;5.30;99.90
4187;DHT22;2107;52.306;10.484;2023-04-20T03:53:25;5.20;99.90
4187;DHT22;2107;52.306;10.484;2023-04-20T03:55:53;5.30;99.90
4187;DHT22;2107;52.306;10.484;2023-04-20T03:58:21;5.20;99.90
4187;DHT22;2107;52.306;10.484;2023-04-20T04:00:48;5.20;99.90
4187;DHT22;2107;52.306;10.484;2023-04-20T04:03:15;5.30;99.90
4187;DHT22;2107;52.306;10.484;2023-04-20T04:05:42;5.30;99.90
4187;DHT22;2107;52.306;10.484;2023-04-20T04:08:09;5.30;99.90
4187;DHT22;2107;52.306;10.484;2023-04-20T04:10:36;5.30;99.90
4187;DHT22;2107;52.306;10.484;2023-04-20T04:13:03;5.30;99.90
4187;DHT22;2107;52.306;10.484;2023-04-20T04:15:31;5.30;99.90
4187;DHT22;2107;52.306;10.484;2023-04-20T04:17:58;5.30;99.90
4187;DHT22;2107;52.306;10.484;2023-04-20T04:20:25;5.20;99.90
4187;DHT22;2107;52.306;10.484;2023-04-20T04:22:51;5.30;99.90
4187;DHT22;2107;52.306;10.484;2023-04-20T04:25:18;5.20;99.90
4187;DHT22;2107;52.306;10.484;2023-04-20T04:27:47;5.20;99.90
4187;DHT22;2107;52.306;10.484;2023-04-20T04:30:15;5.20;99.90
4187;DHT22;2107;52.306;10.484;2023-04-20T04:32:45;5.20;99.90
4187;DHT22;2107;52.306;10.484;2023-04-20T04:35:13;5.10;99.90
4187;DHT22;2107;52.306;10.484;2023-04-20T04:37:40;5.10;99.90
4187;DHT22;2107;52.306;10.484;2023-04-20T04:40:08;5.10;99.90
4187;DHT22;2107;52.306;10.484;2023-04-20T04:42:35;5.10;99.90
4187;DHT22;2107;52.306;10.484;2023-04-20T04:45:03;5.10;99.90
4187;DHT22;2107;52.306;10.484;2023-04-20T04:47:33;5.10;99.90
4187;DHT22;2107;52.306;10.484;2023-04-20T04:50:01;5.10;99.90
4187;DHT22;2107;52.306;10.484;2023-04-20T04:52:29;5.10;99.90
4187;DHT22;2107;52.306;10.484;2023-04-20T04:54:55;5.10;99.90
4187;DHT22;2107;52.306;10.484;2023-04-20T04:57:22;5.10;99.90
4187;DHT22;2107;52.306;10.484;2023-04-20T04:59:49;5.10;99.90
4187;DHT22;2107;52.306;10.484;2023-04-20T05:02:16;5.10;99.90
4187;DHT22;2107;52.306;10.484;2023-04-20T05:04:43;5.10;99.90
4187;DHT22;2107;52.306;10.484;2023-04-20T05:07:11;5.00;99.90
4187;DHT22;2107;52.306;10.484;2023-04-20T05:09:38;4.90;99.90
4187;DHT22;2107;52.306;10.484;2023-04-20T05:12:06;5.00;99.90
4187;DHT22;2107;52.306;10.484;2023-04-20T05:14:33;5.00;99.90
4187;DHT22;2107;52.306;10.484;2023-04-20T05:17:00;5.00;99.90
4187;DHT22;2107;52.306;10.484;2023-04-20T05:19:27;5.00;99.90
4187;DHT22;2107;52.306;10.484;2023-04-20T05:21:54;4.80;99.90
4187;DHT22;2107;52.306;10.484;2023-04-20T05:24:22;4.80;99.90
4187;DHT22;2107;52.306;10.484;2023-04-20T05:26:49;4.90;99.90
4187;DHT22;2107;52.306;10.484;2023-04-20T05:29:16;4.90;99.90
4187;DHT22;2107;52.306;10.484;2023-04-20T05:31:43;4.90;99.90
4187;DHT22;2107;52.306;10.484;2023-04-20T05:34:10;4.90;99.90
4187;DHT22;2107;52.306;10.484;2023-04-20T05:36:38;4.90;99.90
4187;DHT22;2107;52.306;10.484;2023-04-20T05:39:05;5.00;99.90
4187;DHT22;2107;52.306;10.484;2023-04-20T05:41:33;5.10;99.90
4187;DHT22;2107;52.306;10.484;2023-04-20T05:44:00;5.30;99.90
4187;DHT22;2107;52.306;10.484;2023-04-20T05:46:27;5.40;99.90
4187;DHT22;2107;52.306;10.484;2023-04-20T05:48:54;5.40;99.90
4187;DHT22;2107;52.306;10.484;2023-04-20T05:51:21;5.30;99.90
4187;DHT22;2107;52.306;10.484;2023-04-20T05:53:48;5.30;99.90
4187;DHT22;2107;52.306;10.484;2023-04-20T05:56:14;5.40;99.90
4187;DHT22;2107;52.306;10.484;2023-04-20T05:58:44;5.50;99.90
4187;DHT22;2107;52.306;10.484;2023-04-20T06:01:11;5.60;99.90
4187;DHT22;2107;52.306;10.484;2023-04-20T06:03:38;5.80;99.90
4187;DHT22;2107;52.306;10.484;2023-04-20T06:06:05;5.90;99.90
4187;DHT22;2107;52.306;10.484;2023-04-20T06:08:32;6.00;99.90
4187;DHT22;2107;52.306;10.484;2023-04-20T06:10:59;6.10;99.90
4187;DHT22;2107;52.306;10.484;2023-04-20T06:13:26;5.90;99.90
4187;DHT22;2107;52.306;10.484;2023-04-20T06:15:54;5.90;99.90
4187;DHT22;2107;52.306;10.484;2023-04-20T06:18:21;5.80;99.90
4187;DHT22;2107;52.306;10.484;2023-04-20T06:20:48;5.90;99.90
4187;DHT22;2107;52.306;10.484;2023-04-20T06:23:15;6.20;99.90
4187;DHT22;2107;52.306;10.484;2023-04-20T06:25:42;6.60;99.90
4187;DHT22;2107;52.306;10.484;2023-04-20T06:28:09;6.80;99.90
4187;DHT22;2107;52.306;10.484;2023-04-20T06:30:35;7.00;99.90
4187;DHT22;2107;52.306;10.484;2023-04-20T06:33:04;7.20;99.90
4187;DHT22;2107;52.306;10.484;2023-04-20T06:35:31;7.10;99.90
4187;DHT22;2107;52.306;10.484;2023-04-20T06:37:58;7.00;99.90
4187;DHT22;2107;52.306;10.484;2023-04-20T06:40:27;7.20;99.90
4187;DHT22;2107;52.306;10.484;2023-04-20T06:42:54;7.90;99.90
4187;DHT22;2107;52.306;10.484;2023-04-20T06:45:21;7.60;99.90
4187;DHT22;2107;52.306;10.484;2023-04-20T06:47:48;7.40;99.90
4187;DHT22;2107;52.306;10.484;2023-04-20T06:50:16;7.10;99.90
4187;DHT22;2107;52.306;10.484;2023-04-20T06:52:43;7.10;99.90
4187;DHT22;2107;52.306;10.484;2023-04-20T06:55:10;6.90;99.90
4187;DHT22;2107;52.306;10.484;2023-04-20T06:57:37;6.80;99.90
4187;DHT22;2107;52.306;10.484;2023-04-20T07:00:06;7.10;99.90
4187;DHT22;2107;52.306;10.484;2023-04-20T07:02:41;7.10;99.90
4187;DHT22;2107;52.306;10.484;2023-04-20T07:05:09;7.00;99.90
4187;DHT22;2107;52.306;10.484;2023-04-20T07:07:38;7.10;99.90
4187;DHT22;2107;52.306;10.484;2023-04-20T07:10:06;7.20;99.90
4187;DHT22;2107;52.306;10.484;2023-04-20T07:12:33;7.10;99.90
4187;DHT22;2107;52.306;10.484;2023-04-20T07:15:01;7.00;99.90
4187;DHT22;2107;52.306;10.484;2023-04-20T07:17:28;7.20;99.90
4187;DHT22;2107;52.306;10.484;2023-04-20T07:19:55;7.30;99.90
4187;DHT22;2107;52.306;10.484;2023-04-20T07:22:22;7.30;99.90
4187;DHT22;2107;52.306;10.484;2023-04-20T07:24:50;7.50;99.90
4187;DHT22;2107;52.306;10.484;2023-04-20T07:27:17;7.60;99.90
4187;DHT22;2107;52.306;10.484;2023-04-20T07:29:44;7.70;99.90
4187;DHT22;2107;52.306;10.484;2023-04-20T07:32:11;7.80;99.90
4187;DHT22;2107;52.306;10.484;2023-04-20T07:34:38;8.20;99.90
4187;DHT22;2107;52.306;10.484;2023-04-20T07:37:05;8.50;99.90
4187;DHT22;2107;52.306;10.484;2023-04-20T07:39:32;9.00;99.90
4187;DHT22;2107;52.306;10.484;2023-04-20T07:42:02;8.80;99.90
4187;DHT22;2107;52.306;10.484;2023-04-20T07:44:29;8.20;99.90
4187;DHT22;2107;52.306;10.484;2023-04-20T07:46:56;7.70;99.90
4187;DHT22;2107;52.306;10.484;2023-04-20T07:49:23;7.60;99.90
4187;DHT22;2107;52.306;10.484;2023-04-20T07:51:50;7.80;99.90
4187;DHT22;2107;52.306;10.484;2023-04-20T07:54:17;7.70;99.90
4187;DHT22;2107;52.306;10.484;2023-04-20T07:56:44;7.80;99.90
4187;DHT22;2107;52.306;10.484;2023-04-20T07:59:12;8.10;99.90
4187;DHT22;2107;52.306;10.484;2023-04-20T08:01:39;8.40;99.90
4187;DHT22;2107;52.306;10.484;2023-04-20T08:04:06;8.50;99.90
4187;DHT22;2107;52.306;10.484;2023-04-20T08:06:33;8.60;99.90
4187;DHT22;2107;52.306;10.484;2023-04-20T08:09:00;8.50;99.90
4187;DHT22;2107;52.306;10.484;2023-04-20T08:11:28;8.50;99.90
4187;DHT22;2107;52.306;10.484;2023-04-20T08:13:55;8.40;99.90
4187;DHT22;2107;52.306;10.484;2023-04-20T08:16:23;8.30;99.90
4187;DHT22;2107;52.306;10.484;2023-04-20T08:18:50;8.50;99.90
4187;DHT22;2107;52.306;10.484;2023-04-20T08:21:16;8.50;99.90
4187;DHT22;2107;52.306;10.484;2023-04-20T08:23:47;8.50;99.90
4187;DHT22;2107;52.306;10.484;2023-04-20T08:26:14;8.30;99.90
4187;DHT22;2107;52.306;10.484;2023-04-20T08:28:41;8.40;99.90
4187;DHT22;2107;52.306;10.484;2023-04-20T08:31:09;8.90;99.90
4187;DHT22;2107;52.306;10.484;2023-04-20T08:33:37;9.10;99.90
4187;DHT22;2107;52.306;10.484;2023-04-20T08:36:04;9.20;99.90
4187;DHT22;2107;52.306;10.484;2023-04-20T08:38:31;9.10;99.90
4187;DHT22;2107;52.306;10.484;2023-04-20T08:40:57;9.30;99.90
4187;DHT22;2107;52.306;10.484;2023-04-20T08:43:24;9.30;99.90
4187;DHT22;2107;52.306;10.484;2023-04-20T08:45:54;9.40;99.90
4187;DHT22;2107;52.306;10.484;2023-04-20T08:48:24;9.70;99.90
4187;DHT22;2107;52.306;10.484;2023-04-20T08:50:53;9.50;99.90
4187;DHT22;2107;52.306;10.484;2023-04-20T08:53:20;9.30;99.90
4187;DHT22;2107;52.306;10.484;2023-04-20T08:55:48;9.30;99.90
4187;DHT22;2107;52.306;10.484;2023-04-20T08:58:16;9.30;99.90
4187;DHT22;2107;52.306;10.484;2023-04-20T09:00:46;9.30;99.90
4187;DHT22;2107;52.306;10.484;2023-04-20T09:03:13;9.30;99.90
4187;DHT22;2107;52.306;10.484;2023-04-20T09:05:40;9.40;99.90
4187;DHT22;2107;52.306;10.484;2023-04-20T09:08:08;9.50;99.90
4187;DHT22;2107;52.306;10.484;2023-04-20T09:10:40;9.80;99.90
4187;DHT22;2107;52.306;10.484;2023-04-20T09:13:08;9.90;99.90
4187;DHT22;2107;52.306;10.484;2023-04-20T09:15:35;9.70;99.90
4187;DHT22;2107;52.306;10.484;2023-04-20T09:18:10;9.70;99.90
4187;DHT22;2107;52.306;10.484;2023-04-20T09:20:38;9.40;99.90
4187;DHT22;2107;52.306;10.484;2023-04-20T09:23:13;9.40;99.90
4187;DHT22;2107;52.306;10.484;2023-04-20T09:25:41;9.90;99.90
4187;DHT22;2107;52.306;10.484;2023-04-20T09:28:10;10.30;99.90
4187;DHT22;2107;52.306;10.484;2023-04-20T09:30:38;10.10;99.90
4187;DHT22;2107;52.306;10.484;2023-04-20T09:33:06;9.70;99.90
4187;DHT22;2107;52.306;10.484;2023-04-20T09:35:35;10.00;99.90
4187;DHT22;2107;52.306;10.484;2023-04-20T09:38:02;10.30;99.90
4187;DHT22;2107;52.306;10.484;2023-04-20T09:40:31;10.60;99.90
4187;DHT22;2107;52.306;10.484;2023-04-20T09:43:02;10.00;99.90
4187;DHT22;2107;52.306;10.484;2023-04-20T09:45:30;10.50;99.90
4187;DHT22;2107;52.306;10.484;2023-04-20T09:47:57;10.40;99.90
4187;DHT22;2107;52.306;10.484;2023-04-20T09:50:25;10.30;99.90
4187;DHT22;2107;52.306;10.484;2023-04-20T09:52:52;10.30;99.90
4187;DHT22;2107;52.306;10.484;2023-04-20T09:55:19;10.30;99.90
4187;DHT22;2107;52.306;10.484;2023-04-20T09:57:48;10.10;99.90
4187;DHT22;2107;52.306;10.484;2023-04-20T10:00:16;9.70;99.90
4187;DHT22;2107;52.306;10.484;2023-04-20T10:02:45;9.90;99.90
4187;DHT22;2107;52.306;10.484;2023-04-20T10:05:12;10.30;99.90
4187;DHT22;2107;52.306;10.484;2023-04-20T10:07:40;10.60;99.90
4187;DHT22;2107;52.306;10.484;2023-04-20T10:10:08;11.30;99.90
4187;DHT22;2107;52.306;10.484;2023-04-20T10:12:50;11.70;99.90
4187;DHT22;2107;52.306;10.484;2023-04-20T10:15:18;11.40;99.90
4187;DHT22;2107;52.306;10.484;2023-04-20T10:17:46;11.40;99.90
4187;DHT22;2107;52.306;10.484;2023-04-20T10:20:21;12.50;99.90
4187;DHT22;2107;52.306;10.484;2023-04-20T10:22:49;12.60;99.90
4187;DHT22;2107;52.306;10.484;2023-04-20T10:25:17;12.50;99.90
4187;DHT22;2107;52.306;10.484;2023-04-20T10:27:57;11.30;99.70
4187;DHT22;2107;52.306;10.484;2023-04-20T10:30:25;10.90;99.90
4187;DHT22;2107;52.306;10.484;2023-04-20T10:33:02;12.80;99.90
4187;DHT22;2107;52.306;10.484;2023-04-20T10:35:40;13.50;99.90
4187;DHT22;2107;52.306;10.484;2023-04-20T10:38:07;13.60;99.60
4187;DHT22;2107;52.306;10.484;2023-04-20T10:40:34;11.70;99.70
4187;DHT22;2107;52.306;10.484;2023-04-20T10:43:03;12.60;99.90
4187;DHT22;2107;52.306;10.484;2023-04-20T10:45:33;13.80;99.90
4187;DHT22;2107;52.306;10.484;2023-04-20T10:48:06;13.40;98.50
4187;DHT22;2107;52.306;10.484;2023-04-20T10:50:34;13.40;97.20
4187;DHT22;2107;52.306;10.484;2023-04-20T10:53:01;13.10;97.70
4187;DHT22;2107;52.306;10.484;2023-04-20T10:55:28;10.50;99.70
4187;DHT22;2107;52.306;10.484;2023-04-20T10:57:55;10.80;99.90
4187;DHT22;2107;52.306;10.484;2023-04-20T11:00:25;11.90;99.90
4187;DHT22;2107;52.306;10.484;2023-04-20T11:02:54;12.10;99.90
4187;DHT22;2107;52.306;10.484;2023-04-20T11:05:23;12.70;99.20
4187;DHT22;2107;52.306;10.484;2023-04-20T11:07:51;12.20;99.80
4187;DHT22;2107;52.306;10.484;2023-04-20T11:10:19;11.90;98.50
4187;DHT22;2107;52.306;10.484;2023-04-20T11:12:46;12.80;99.30
4187;DHT22;2107;52.306;10.484;2023-04-20T11:15:13;13.40;98.20
4187;DHT22;2107;52.306;10.484;2023-04-20T11:17:42;11.70;97.50
4187;DHT22;2107;52.306;10.484;2023-04-20T11:20:12;12.50;99.70
4187;DHT22;2107;52.306;10.484;2023-04-20T11:22:41;12.70;97.80
4187;DHT22;2107;52.306;10.484;2023-04-20T11:25:09;13.00;98.60
4187;DHT22;2107;52.306;10.484;2023-04-20T11:27:38;12.50;97.00
4187;DHT22;2107;52.306;10.484;2023-04-20T11:30:06;11.90;99.20
4187;DHT22;2107;52.306;10.484;2023-04-20T11:32:34;11.20;98.90
4187;DHT22;2107;52.306;10.484;2023-04-20T11:35:05;11.50;99.90
4187;DHT22;2107;52.306;10.484;2023-04-20T11:37:33;11.90;99.90
4187;DHT22;2107;52.306;10.484;2023-04-20T11:40:01;13.40;98.30
4187;DHT22;2107;52.306;10.484;2023-04-20T11:42:29;12.20;96.60
4187;DHT22;2107;52.306;10.484;2023-04-20T11:44:57;11.50;98.40
4187;DHT22;2107;52.306;10.484;2023-04-20T11:47:24;12.50;98.50
4187;DHT22;2107;52.306;10.484;2023-04-20T11:49:52;12.40;97.80
4187;DHT22;2107;52.306;10.484;2023-04-20T11:52:20;12.70;98.10
4187;DHT22;2107;52.306;10.484;2023-04-20T11:54:47;12.70;97.90
4187;DHT22;2107;52.306;10.484;2023-04-20T11:57:14;11.90;97.60
4187;DHT22;2107;52.306;10.484;2023-04-20T11:59:41;12.20;97.50
4187;DHT22;2107;52.306;10.484;2023-04-20T12:02:12;12.60;97.90
4187;DHT22;2107;52.306;10.484;2023-04-20T12:04:39;12.70;97.10
4187;DHT22;2107;52.306;10.484;2023-04-20T12:07:06;12.50;97.20
4187;DHT22;2107;52.306;10.484;2023-04-20T12:09:34;11.30;97.90
4187;DHT22;2107;52.306;10.484;2023-04-20T12:12:03;12.00;98.00
4187;DHT22;2107;52.306;10.484;2023-04-20T12:14:30;12.50;97.80
4187;DHT22;2107;52.306;10.484;2023-04-20T12:16:58;12.50;97.40
4187;DHT22;2107;52.306;10.484;2023-04-20T12:19:24;12.10;98.10
4187;DHT22;2107;52.306;10.484;2023-04-20T12:21:51;12.10;98.50
4187;DHT22;2107;52.306;10.484;2023-04-20T12:24:18;12.20;98.50
4187;DHT22;2107;52.306;10.484;2023-04-20T12:26:46;12.60;98.20
4187;DHT22;2107;52.306;10.484;2023-04-20T12:29:13;12.90;98.00
4187;DHT22;2107;52.306;10.484;2023-04-20T12:31:40;12.80;97.50
4187;DHT22;2107;52.306;10.484;2023-04-20T12:34:07;12.30;97.50
4187;DHT22;2107;52.306;10.484;2023-04-20T12:36:35;12.00;97.60
4187;DHT22;2107;52.306;10.484;2023-04-20T12:39:02;10.90;98.70
4187;DHT22;2107;52.306;10.484;2023-04-20T12:41:29;11.30;98.70
4187;DHT22;2107;52.306;10.484;2023-04-20T12:43:57;11.20;98.50
4187;DHT22;2107;52.306;10.484;2023-04-20T12:46:24;11.50;98.60
4187;DHT22;2107;52.306;10.484;2023-04-20T12:48:51;11.60;98.20
4187;DHT22;2107;52.306;10.484;2023-04-20T12:51:17;11.40;98.20
4187;DHT22;2107;52.306;10.484;2023-04-20T12:53:44;11.50;98.40
4187;DHT22;2107;52.306;10.484;2023-04-20T12:56:11;11.40;97.20
4187;DHT22;2107;52.306;10.484;2023-04-20T12:58:39;11.40;97.90
4187;DHT22;2107;52.306;10.484;2023-04-20T13:01:07;11.30;98.50
4187;DHT22;2107;52.306;10.484;2023-04-20T13:03:34;11.00;99.90
4187;DHT22;2107;52.306;10.484;2023-04-20T13:06:01;10.90;99.90
4187;DHT22;2107;52.306;10.484;2023-04-20T13:08:28;10.50;99.90
4187;DHT22;2107;52.306;10.484;2023-04-20T13:10:55;10.20;99.90
4187;DHT22;2107;52.306;10.484;2023-04-20T13:13:22;10.10;99.90
4187;DHT22;2107;52.306;10.484;2023-04-20T13:15:49;10.10;99.90
4187;DHT22;2107;52.306;10.484;2023-04-20T13:18:20;10.10;99.90
4187;DHT22;2107;52.306;10.484;2023-04-20T13:20:48;10.00;99.90
4187;DHT22;2107;52.306;10.484;2023-04-20T13:23:15;10.10;99.90
4187;DHT22;2107;52.306;10.484;2023-04-20T13:25:42;10.10;99.90
4187;DHT22;2107;52.306;10.484;2023-04-20T13:28:09;10.20;99.90
4187;DHT22;2107;52.306;10.484;2023-04-20T13:30:36;10.20;99.90
4187;DHT22;2107;52.306;10.484;2023-04-20T13:33:03;10.10;99.90
4187;DHT22;2107;52.306;10.484;2023-04-20T13:35:32;9.90;99.90
4187;DHT22;2107;52.306;10.484;2023-04-20T13:37:59;9.70;99.90
4187;DHT22;2107;52.306;10.484;2023-04-20T13:40:26;9.60;99.90
4187;DHT22;2107;52.306;10.484;2023-04-20T13:42:53;9.70;99.90
4187;DHT22;2107;52.306;10.484;2023-04-20T13:45:22;9.70;99.90
4187;DHT22;2107;52.306;10.484;2023-04-20T13:47:49;9.70;99.90
4187;DHT22;2107;52.306;10.484;2023-04-20T13:50:15;9.60;99.90
4187;DHT22;2107;52.306;10.484;2023-04-20T13:52:44;9.40;99.90
4187;DHT22;2107;52.306;10.484;2023-04-20T13:55:10;9.30;99.90
4187;DHT22;2107;52.306;10.484;2023-04-20T13:57:37;9.30;99.90
4187;DHT22;2107;52.306;10.484;2023-04-20T14:00:06;9.20;99.90
4187;DHT22;2107;52.306;10.484;2023-04-20T14:02:33;9.10;99.90
4187;DHT22;2107;52.306;10.484;2023-04-20T14:04:59;8.90;99.90
4187;DHT22;2107;52.306;10.484;2023-04-20T14:07:28;8.80;99.90
4187;DHT22;2107;52.306;10.484;2023-04-20T14:09:56;9.00;99.90
4187;DHT22;2107;52.306;10.484;2023-04-20T14:12:25;9.00;99.90
4187;DHT22;2107;52.306;10.484;2023-04-20T14:14:53;9.10;99.90
4187;DHT22;2107;52.306;10.484;2023-04-20T14:17:19;9.10;99.90
4187;DHT22;2107;52.306;10.484;2023-04-20T14:19:46;9.20;99.90
4187;DHT22;2107;52.306;10.484;2023-04-20T14:22:14;9.20;99.90
4187;DHT22;2107;52.306;10.484;2023-04-20T14:24:41;9.30;99.90
4187;DHT22;2107;52.306;10.484;2023-04-20T14:27:11;9.10;99.90
4187;DHT22;2107;52.306;10.484;2023-04-20T14:29:37;9.00;99.90
4187;DHT22;2107;52.306;10.484;2023-04-20T14:32:04;8.90;99.90
4187;DHT22;2107;52.306;10.484;2023-04-20T14:34:31;8.60;99.90
4187;DHT22;2107;52.306;10.484;2023-04-20T14:36:58;8.60;99.90
4187;DHT22;2107;52.306;10.484;2023-04-20T14:39:25;8.50;99.90
4187;DHT22;2107;52.306;10.484;2023-04-20T14:41:52;8.30;99.90
4187;DHT22;2107;52.306;10.484;2023-04-20T14:44:20;8.20;99.90
4187;DHT22;2107;52.306;10.484;2023-04-20T14:46:47;8.00;99.90
4187;DHT22;2107;52.306;10.484;2023-04-20T14:49:14;8.00;99.90
4187;DHT22;2107;52.306;10.484;2023-04-20T14:51:40;7.90;99.90
4187;DHT22;2107;52.306;10.484;2023-04-20T14:54:07;7.90;99.90
4187;DHT22;2107;52.306;10.484;2023-04-20T14:56:34;7.90;99.90
4187;DHT22;2107;52.306;10.484;2023-04-20T14:59:01;7.80;99.90
4187;DHT22;2107;52.306;10.484;2023-04-20T15:01:29;7.70;99.90
4187;DHT22;2107;52.306;10.484;2023-04-20T15:03:56;7.70;99.90
4187;DHT22;2107;52.306;10.484;2023-04-20T15:06:23;7.70;99.90
4187;DHT22;2107;52.306;10.484;2023-04-20T15:08:51;7.70;99.90
4187;DHT22;2107;52.306;10.484;2023-04-20T15:11:18;7.80;99.90
4187;DHT22;2107;52.306;10.484;2023-04-20T15:13:47;7.90;99.90
4187;DHT22;2107;52.306;10.484;2023-04-20T15:16:14;7.90;99.90
4187;DHT22;2107;52.306;10.484;2023-04-20T15:18:42;8.00;99.90
4187;DHT22;2107;52.306;10.484;2023-04-20T15:21:09;8.10;99.90
4187;DHT22;2107;52.306;10.484;2023-04-20T15:23:36;8.10;99.90
4187;DHT22;2107;52.306;10.484;2023-04-20T15:26:03;8.10;99.90
4187;DHT22;2107;52.306;10.484;2023-04-20T15:28:30;8.30;99.90
4187;DHT22;2107;52.306;10.484;2023-04-20T15:30:57;8.40;99.90
4187;DHT22;2107;52.306;10.484;2023-04-20T15:33:23;8.40;99.90
4187;DHT22;2107;52.306;10.484;2023-04-20T15:35:52;8.30;99.90
4187;DHT22;2107;52.306;10.484;2023-04-20T15:38:19;8.50;99.90
4187;DHT22;2107;52.306;10.484;2023-04-20T15:40:46;8.50;99.90
4187;DHT22;2107;52.306;10.484;2023-04-20T15:43:13;8.50;99.90
4187;DHT22;2107;52.306;10.484;2023-04-20T15:45:40;8.60;99.90
4187;DHT22;2107;52.306;10.484;2023-04-20T15:48:06;8.70;99.90
4187;DHT22;2107;52.306;10.484;2023-04-20T15:50:33;8.80;99.90
4187;DHT22;2107;52.306;10.484;2023-04-20T15:53:02;8.80;99.90
4187;DHT22;2107;52.306;10.484;2023-04-20T15:55:29;9.00;99.90
4187;DHT22;2107;52.306;10.484;2023-04-20T15:57:58;9.00;99.90
4187;DHT22;2107;52.306;10.484;2023-04-20T16:00:25;9.10;99.90